sensor_id;sensor_type;location;lat;lon;timestamp;temperature;humidity
11961;DHT22;6040;49.358;11.140;2024-01-06T00:02:07;3.40;99.90
11961;DHT22;6040;49.358;11.140;2024-01-06T00:04:36;5.70;99.90
11961;DHT22;6040;49.358;11.140;2024-01-06T00:07:03;3.20;99.90
11961;DHT22;6040;49.358;11.140;2024-01-06T00:09:30;3.10;99.90
11961;DHT22;6040;49.358;11.140;2024-01-06T00:11:56;5.10;99.90
11961;DHT22;6040;49.358;11.140;2024-01-06T00:14:23;2.90;99.90
11961;DHT22;6040;49.358;11.140;2024-01-06T00:16:50;2.90;99.90
11961;DHT22;6040;49.358;11.140;2024-01-06T00:19:17;2.90;99.90
11961;DHT22;6040;49.358;11.140;2024-01-06T00:21:45;2.90;99.90
11961;DHT22;6040;49.358;11.140;2024-01-06T00:24:12;2.90;99.90
11961;DHT22;6040;49.358;11.140;2024-01-06T00:26:39;6.00;99.90
11961;DHT22;6040;49.358;11.140;2024-01-06T00:29:05;2.90;99.90
11961;DHT22;6040;49.358;11.140;2024-01-06T00:31:32;2.90;99.90
11961;DHT22;6040;49.358;11.140;2024-01-06T00:33:59;3.10;99.90
11961;DHT22;6040;49.358;11.140;2024-01-06T00:36:26;2.80;99.90
11961;DHT22;6040;49.358;11.140;2024-01-06T00:38:54;2.80;99.90
11961;DHT22;6040;49.358;11.140;2024-01-06T00:41:21;2.80;99.90
11961;DHT22;6040;49.358;11.140;2024-01-06T00:43:48;4.10;99.90
11961;DHT22;6040;49.358;11.140;2024-01-06T00:46:15;2.90;99.90
11961;DHT22;6040;49.358;11.140;2024-01-06T00:48:41;4.90;99.90
11961;DHT22;6040;49.358;11.140;2024-01-06T00:51:08;2.80;99.90
11961;DHT22;6040;49.358;11.140;2024-01-06T00:53:35;4.90;99.90
11961;DHT22;6040;49.358;11.140;2024-01-06T00:56:04;2.80;99.90
11961;DHT22;6040;49.358;11.140;2024-01-06T00:58:30;2.80;99.90
11961;DHT22;6040;49.358;11.140;2024-01-06T01:00:57;2.80;99.90
11961;DHT22;6040;49.358;11.140;2024-01-06T01:03:24;2.80;99.90
11961;DHT22;6040;49.358;11.140;2024-01-06T01:05:51;2.90;99.90
11961;DHT22;6040;49.358;11.140;2024-01-06T01:08:18;2.80;99.90
11961;DHT22;6040;49.358;11.140;2024-01-06T01:10:45;2.70;99.90
11961;DHT22;6040;49.358;11.140;2024-01-06T01:13:13;2.70;99.90
11961;DHT22;6040;49.358;11.140;2024-01-06T01:15:40;2.70;99.90
11961;DHT22;6040;49.358;11.140;2024-01-06T01:18:06;5.20;99.90
11961;DHT22;6040;49.358;11.140;2024-01-06T01:20:33;2.60;99.90
11961;DHT22;6040;49.358;11.140;2024-01-06T01:23:00;4.80;99.90
11961;DHT22;6040;49.358;11.140;2024-01-06T01:25:27;2.60;99.90
11961;DHT22;6040;49.358;11.140;2024-01-06T01:27:53;2.70;99.90
11961;DHT22;6040;49.358;11.140;2024-01-06T01:30:22;2.60;99.90
11961;DHT22;6040;49.358;11.140;2024-01-06T01:32:48;4.50;99.90
11961;DHT22;6040;49.358;11.140;2024-01-06T01:35:15;5.50;99.90
11961;DHT22;6040;49.358;11.140;2024-01-06T01:37:42;2.50;99.90
11961;DHT22;6040;49.358;11.140;2024-01-06T01:40:09;2.70;99.90
11961;DHT22;6040;49.358;11.140;2024-01-06T01:42:36;2.60;99.90
11961;DHT22;6040;49.358;11.140;2024-01-06T01:45:04;2.60;99.90
11961;DHT22;6040;49.358;11.140;2024-01-06T01:47:32;2.60;99.90
11961;DHT22;6040;49.358;11.140;2024-01-06T01:49:59;4.10;99.90
11961;DHT22;6040;49.358;11.140;2024-01-06T01:52:27;3.40;99.90
11961;DHT22;6040;49.358;11.140;2024-01-06T01:54:54;2.60;99.90
11961;DHT22;6040;49.358;11.140;2024-01-06T01:57:24;2.60;99.90
11961;DHT22;6040;49.358;11.140;2024-01-06T01:59:52;5.60;99.90
11961;DHT22;6040;49.358;11.140;2024-01-06T02:02:20;4.00;99.90
11961;DHT22;6040;49.358;11.140;2024-01-06T02:04:49;2.60;99.90
11961;DHT22;6040;49.358;11.140;2024-01-06T02:07:16;2.50;99.90
11961;DHT22;6040;49.358;11.140;2024-01-06T02:09:43;2.50;99.90
11961;DHT22;6040;49.358;11.140;2024-01-06T02:12:10;4.50;99.90
11961;DHT22;6040;49.358;11.140;2024-01-06T02:14:37;2.50;99.90
11961;DHT22;6040;49.358;11.140;2024-01-06T02:17:03;5.10;99.90
11961;DHT22;6040;49.358;11.140;2024-01-06T02:19:30;0.10;99.90
11961;DHT22;6040;49.358;11.140;2024-01-06T02:21:58;3.00;99.90
11961;DHT22;6040;49.358;11.140;2024-01-06T02:24:25;2.60;99.90
11961;DHT22;6040;49.358;11.140;2024-01-06T02:26:52;2.50;99.90
11961;DHT22;6040;49.358;11.140;2024-01-06T02:29:19;2.50;99.90
11961;DHT22;6040;49.358;11.140;2024-01-06T02:31:45;4.60;99.90
11961;DHT22;6040;49.358;11.140;2024-01-06T02:34:12;2.60;99.90
11961;DHT22;6040;49.358;11.140;2024-01-06T02:36:39;2.60;99.90
11961;DHT22;6040;49.358;11.140;2024-01-06T02:39:07;4.20;99.90
11961;DHT22;6040;49.358;11.140;2024-01-06T02:41:34;2.60;99.90
11961;DHT22;6040;49.358;11.140;2024-01-06T02:44:02;2.60;99.90
11961;DHT22;6040;49.358;11.140;2024-01-06T02:46:29;2.60;99.90
11961;DHT22;6040;49.358;11.140;2024-01-06T02:48:56;2.60;99.90
11961;DHT22;6040;49.358;11.140;2024-01-06T02:51:22;5.10;99.90
11961;DHT22;6040;49.358;11.140;2024-01-06T02:53:49;3.00;99.90
11961;DHT22;6040;49.358;11.140;2024-01-06T02:56:17;2.60;99.90
11961;DHT22;6040;49.358;11.140;2024-01-06T02:58:44;2.60;99.90
11961;DHT22;6040;49.358;11.140;2024-01-06T03:01:11;2.60;99.90
11961;DHT22;6040;49.358;11.140;2024-01-06T03:03:38;3.10;99.90
11961;DHT22;6040;49.358;11.140;2024-01-06T03:06:05;2.50;99.90
11961;DHT22;6040;49.358;11.140;2024-01-06T03:08:32;2.50;99.90
11961;DHT22;6040;49.358;11.140;2024-01-06T03:11:00;4.00;99.90
11961;DHT22;6040;49.358;11.140;2024-01-06T03:13:29;2.50;99.90
11961;DHT22;6040;49.358;11.140;2024-01-06T03:15:55;2.60;99.90
11961;DHT22;6040;49.358;11.140;2024-01-06T03:18:22;2.60;99.90
11961;DHT22;6040;49.358;11.140;2024-01-06T03:20:49;2.40;99.90
11961;DHT22;6040;49.358;11.140;2024-01-06T03:23:16;2.50;99.90
11961;DHT22;6040;49.358;11.140;2024-01-06T03:25:43;2.50;99.90
11961;DHT22;6040;49.358;11.140;2024-01-06T03:28:09;2.50;99.90
11961;DHT22;6040;49.358;11.140;2024-01-06T03:30:38;2.60;99.90
11961;DHT22;6040;49.358;11.140;2024-01-06T03:33:05;2.60;99.90
11961;DHT22;6040;49.358;11.140;2024-01-06T03:35:32;5.20;99.90
11961;DHT22;6040;49.358;11.140;2024-01-06T03:37:59;2.50;99.90
11961;DHT22;6040;49.358;11.140;2024-01-06T03:40:26;2.50;99.90
11961;DHT22;6040;49.358;11.140;2024-01-06T03:42:52;5.30;99.90
11961;DHT22;6040;49.358;11.140;2024-01-06T03:45:19;2.60;99.90
11961;DHT22;6040;49.358;11.140;2024-01-06T03:47:47;2.60;99.90
11961;DHT22;6040;49.358;11.140;2024-01-06T03:50:14;4.60;99.90
11961;DHT22;6040;49.358;11.140;2024-01-06T03:52:41;2.50;99.90
11961;DHT22;6040;49.358;11.140;2024-01-06T03:55:08;2.50;99.90
11961;DHT22;6040;49.358;11.140;2024-01-06T03:57:35;2.50;99.90
11961;DHT22;6040;49.358;11.140;2024-01-06T04:00:03;2.60;99.90
11961;DHT22;6040;49.358;11.140;2024-01-06T04:02:30;2.60;99.90
11961;DHT22;6040;49.358;11.140;2024-01-06T04:04:58;2.60;99.90
11961;DHT22;6040;49.358;11.140;2024-01-06T04:07:25;3.40;99.90
11961;DHT22;6040;49.358;11.140;2024-01-06T04:09:52;2.50;99.90
11961;DHT22;6040;49.358;11.140;2024-01-06T04:12:18;2.50;99.90
11961;DHT22;6040;49.358;11.140;2024-01-06T04:14:45;2.50;99.90
11961;DHT22;6040;49.358;11.140;2024-01-06T04:17:12;2.40;99.90
11961;DHT22;6040;49.358;11.140;2024-01-06T04:19:39;2.50;99.90
11961;DHT22;6040;49.358;11.140;2024-01-06T04:22:07;4.60;99.90
11961;DHT22;6040;49.358;11.140;2024-01-06T04:24:34;2.50;99.90
11961;DHT22;6040;49.358;11.140;2024-01-06T04:27:03;2.50;99.90
11961;DHT22;6040;49.358;11.140;2024-01-06T04:29:30;2.50;99.90
11961;DHT22;6040;49.358;11.140;2024-01-06T04:31:57;2.50;99.90
11961;DHT22;6040;49.358;11.140;2024-01-06T04:34:23;2.50;99.90
11961;DHT22;6040;49.358;11.140;2024-01-06T04:36:50;2.50;99.90
11961;DHT22;6040;49.358;11.140;2024-01-06T04:39:18;1.90;99.90
11961;DHT22;6040;49.358;11.140;2024-01-06T04:41:45;2.50;99.90
11961;DHT22;6040;49.358;11.140;2024-01-06T04:44:12;2.50;99.90
11961;DHT22;6040;49.358;11.140;2024-01-06T04:46:39;2.50;99.90
11961;DHT22;6040;49.358;11.140;2024-01-06T04:49:05;4.80;99.90
11961;DHT22;6040;49.358;11.140;2024-01-06T04:51:32;2.50;99.90
11961;DHT22;6040;49.358;11.140;2024-01-06T04:53:59;2.50;99.90
11961;DHT22;6040;49.358;11.140;2024-01-06T04:56:27;2.40;99.90
11961;DHT22;6040;49.358;11.140;2024-01-06T04:58:54;3.60;99.90
11961;DHT22;6040;49.358;11.140;2024-01-06T05:01:22;2.40;99.90
11961;DHT22;6040;49.358;11.140;2024-01-06T05:03:48;4.00;99.90
11961;DHT22;6040;49.358;11.140;2024-01-06T05:06:15;2.40;99.90
11961;DHT22;6040;49.358;11.140;2024-01-06T05:08:42;2.40;99.90
11961;DHT22;6040;49.358;11.140;2024-01-06T05:11:10;2.40;99.90
11961;DHT22;6040;49.358;11.140;2024-01-06T05:13:39;2.40;99.90
11961;DHT22;6040;49.358;11.140;2024-01-06T05:16:06;2.40;99.90
11961;DHT22;6040;49.358;11.140;2024-01-06T05:18:33;2.60;99.90
11961;DHT22;6040;49.358;11.140;2024-01-06T05:21:00;2.20;99.90
11961;DHT22;6040;49.358;11.140;2024-01-06T05:23:27;2.20;99.90
11961;DHT22;6040;49.358;11.140;2024-01-06T05:25:54;3.80;99.90
11961;DHT22;6040;49.358;11.140;2024-01-06T05:28:21;2.10;99.90
11961;DHT22;6040;49.358;11.140;2024-01-06T05:30:49;2.10;99.90
11961;DHT22;6040;49.358;11.140;2024-01-06T05:33:16;2.00;99.90
11961;DHT22;6040;49.358;11.140;2024-01-06T05:35:43;2.00;99.90
11961;DHT22;6040;49.358;11.140;2024-01-06T05:38:10;2.10;99.90
11961;DHT22;6040;49.358;11.140;2024-01-06T05:40:37;2.00;99.90
11961;DHT22;6040;49.358;11.140;2024-01-06T05:43:04;2.00;99.90
11961;DHT22;6040;49.358;11.140;2024-01-06T05:45:31;4.40;99.90
11961;DHT22;6040;49.358;11.140;2024-01-06T05:47:59;3.60;99.90
11961;DHT22;6040;49.358;11.140;2024-01-06T05:50:26;2.00;99.90
11961;DHT22;6040;49.358;11.140;2024-01-06T05:52:52;2.00;99.90
11961;DHT22;6040;49.358;11.140;2024-01-06T05:55:21;2.00;99.90
11961;DHT22;6040;49.358;11.140;2024-01-06T05:57:47;2.00;99.90
11961;DHT22;6040;49.358;11.140;2024-01-06T06:00:15;4.40;99.90
11961;DHT22;6040;49.358;11.140;2024-01-06T06:02:42;1.90;99.90
11961;DHT22;6040;49.358;11.140;2024-01-06T06:05:11;2.00;99.90
11961;DHT22;6040;49.358;11.140;2024-01-06T06:07:39;1.90;99.90
11961;DHT22;6040;49.358;11.140;2024-01-06T06:10:07;1.80;99.90
11961;DHT22;6040;49.358;11.140;2024-01-06T06:12:34;1.80;99.90
11961;DHT22;6040;49.358;11.140;2024-01-06T06:15:01;1.80;99.90
11961;DHT22;6040;49.358;11.140;2024-01-06T06:17:29;1.80;99.90
11961;DHT22;6040;49.358;11.140;2024-01-06T06:19:56;1.70;99.90
11961;DHT22;6040;49.358;11.140;2024-01-06T06:22:25;2.80;99.90
11961;DHT22;6040;49.358;11.140;2024-01-06T06:24:55;1.70;99.90
11961;DHT22;6040;49.358;11.140;2024-01-06T06:27:22;1.70;99.90
11961;DHT22;6040;49.358;11.140;2024-01-06T06:29:49;2.20;99.90
11961;DHT22;6040;49.358;11.140;2024-01-06T06:32:16;1.70;99.90
11961;DHT22;6040;49.358;11.140;2024-01-06T06:34:43;1.60;99.90
11961;DHT22;6040;49.358;11.140;2024-01-06T06:37:10;2.80;99.90
11961;DHT22;6040;49.358;11.140;2024-01-06T06:39:38;1.70;99.90
11961;DHT22;6040;49.358;11.140;2024-01-06T06:42:05;1.70;99.90
11961;DHT22;6040;49.358;11.140;2024-01-06T06:44:32;1.70;99.90
11961;DHT22;6040;49.358;11.140;2024-01-06T06:46:58;1.70;99.90
11961;DHT22;6040;49.358;11.140;2024-01-06T06:49:25;1.60;99.90
11961;DHT22;6040;49.358;11.140;2024-01-06T06:51:52;1.60;99.90
11961;DHT22;6040;49.358;11.140;2024-01-06T06:54:21;1.50;99.90
11961;DHT22;6040;49.358;11.140;2024-01-06T06:56:49;1.60;99.90
11961;DHT22;6040;49.358;11.140;2024-01-06T06:59:16;1.60;99.90
11961;DHT22;6040;49.358;11.140;2024-01-06T07:01:43;3.30;99.90
11961;DHT22;6040;49.358;11.140;2024-01-06T07:04:09;1.60;99.90
11961;DHT22;6040;49.358;11.140;2024-01-06T07:06:36;1.60;99.90
11961;DHT22;6040;49.358;11.140;2024-01-06T07:09:03;4.00;99.90
11961;DHT22;6040;49.358;11.140;2024-01-06T07:11:30;1.60;99.90
11961;DHT22;6040;49.358;11.140;2024-01-06T07:13:58;4.20;99.90
11961;DHT22;6040;49.358;11.140;2024-01-06T07:16:25;4.10;99.90
11961;DHT22;6040;49.358;11.140;2024-01-06T07:18:52;4.60;99.90
11961;DHT22;6040;49.358;11.140;2024-01-06T07:21:19;1.50;99.90
11961;DHT22;6040;49.358;11.140;2024-01-06T07:23:46;1.50;99.90
11961;DHT22;6040;49.358;11.140;2024-01-06T07:26:12;1.50;99.90
11961;DHT22;6040;49.358;11.140;2024-01-06T07:28:39;1.50;99.90
11961;DHT22;6040;49.358;11.140;2024-01-06T07:31:07;1.50;99.90
11961;DHT22;6040;49.358;11.140;2024-01-06T07:33:34;2.20;99.90
11961;DHT22;6040;49.358;11.140;2024-01-06T07:36:01;1.80;99.90
11961;DHT22;6040;49.358;11.140;2024-01-06T07:38:28;1.50;99.90
11961;DHT22;6040;49.358;11.140;2024-01-06T07:40:56;2.90;99.90
11961;DHT22;6040;49.358;11.140;2024-01-06T07:43:23;1.60;99.90
11961;DHT22;6040;49.358;11.140;2024-01-06T07:45:50;3.90;99.90
11961;DHT22;6040;49.358;11.140;2024-01-06T07:48:18;1.60;99.90
11961;DHT22;6040;49.358;11.140;2024-01-06T07:50:45;2.10;99.90
11961;DHT22;6040;49.358;11.140;2024-01-06T07:53:12;1.70;99.90
11961;DHT22;6040;49.358;11.140;2024-01-06T07:55:40;1.70;99.90
11961;DHT22;6040;49.358;11.140;2024-01-06T07:58:06;1.70;99.90
11961;DHT22;6040;49.358;11.140;2024-01-06T08:00:33;1.70;99.90
11961;DHT22;6040;49.358;11.140;2024-01-06T08:03:00;1.70;99.90
11961;DHT22;6040;49.358;11.140;2024-01-06T08:05:29;1.70;99.90
11961;DHT22;6040;49.358;11.140;2024-01-06T08:07:56;3.10;99.90
11961;DHT22;6040;49.358;11.140;2024-01-06T08:10:22;1.70;99.90
11961;DHT22;6040;49.358;11.140;2024-01-06T08:12:49;2.50;99.90
11961;DHT22;6040;49.358;11.140;2024-01-06T08:15:16;1.80;99.90
11961;DHT22;6040;49.358;11.140;2024-01-06T08:17:43;1.80;99.90
11961;DHT22;6040;49.358;11.140;2024-01-06T08:20:10;1.90;99.90
11961;DHT22;6040;49.358;11.140;2024-01-06T08:22:39;1.90;99.90
11961;DHT22;6040;49.358;11.140;2024-01-06T08:25:06;1.90;99.90
11961;DHT22;6040;49.358;11.140;2024-01-06T08:27:33;2.10;99.90
11961;DHT22;6040;49.358;11.140;2024-01-06T08:30:00;2.20;99.90
11961;DHT22;6040;49.358;11.140;2024-01-06T08:32:27;4.40;99.90
11961;DHT22;6040;49.358;11.140;2024-01-06T08:34:54;2.30;99.90
11961;DHT22;6040;49.358;11.140;2024-01-06T08:37:20;2.90;99.90
11961;DHT22;6040;49.358;11.140;2024-01-06T08:39:48;2.20;99.90
11961;DHT22;6040;49.358;11.140;2024-01-06T08:42:15;2.30;99.90
11961;DHT22;6040;49.358;11.140;2024-01-06T08:44:42;3.50;99.90
11961;DHT22;6040;49.358;11.140;2024-01-06T08:47:10;2.40;99.90
11961;DHT22;6040;49.358;11.140;2024-01-06T08:49:37;3.70;99.90
11961;DHT22;6040;49.358;11.140;2024-01-06T08:52:05;2.50;99.90
11961;DHT22;6040;49.358;11.140;2024-01-06T08:54:32;2.40;99.90
11961;DHT22;6040;49.358;11.140;2024-01-06T08:57:00;3.60;99.90
11961;DHT22;6040;49.358;11.140;2024-01-06T08:59:26;2.50;99.90
11961;DHT22;6040;49.358;11.140;2024-01-06T09:01:53;2.50;99.90
11961;DHT22;6040;49.358;11.140;2024-01-06T09:04:21;2.50;99.90
11961;DHT22;6040;49.358;11.140;2024-01-06T09:06:48;5.10;99.90
11961;DHT22;6040;49.358;11.140;2024-01-06T09:09:16;2.60;99.90
11961;DHT22;6040;49.358;11.140;2024-01-06T09:11:43;2.70;99.90
11961;DHT22;6040;49.358;11.140;2024-01-06T09:14:13;2.70;99.90
11961;DHT22;6040;49.358;11.140;2024-01-06T09:16:40;2.70;99.90
11961;DHT22;6040;49.358;11.140;2024-01-06T09:19:06;2.80;99.90
11961;DHT22;6040;49.358;11.140;2024-01-06T09:21:34;2.90;99.90
11961;DHT22;6040;49.358;11.140;2024-01-06T09:24:01;4.30;99.90
11961;DHT22;6040;49.358;11.140;2024-01-06T09:26:31;3.00;99.90
11961;DHT22;6040;49.358;11.140;2024-01-06T09:28:58;5.50;99.90
11961;DHT22;6040;49.358;11.140;2024-01-06T09:31:26;3.10;99.90
11961;DHT22;6040;49.358;11.140;2024-01-06T09:33:53;3.20;99.90
11961;DHT22;6040;49.358;11.140;2024-01-06T09:36:20;4.80;99.90
11961;DHT22;6040;49.358;11.140;2024-01-06T09:38:47;3.30;99.90
11961;DHT22;6040;49.358;11.140;2024-01-06T09:41:14;6.30;99.90
11961;DHT22;6040;49.358;11.140;2024-01-06T09:43:40;4.50;99.90
11961;DHT22;6040;49.358;11.140;2024-01-06T09:46:13;3.40;99.90
11961;DHT22;6040;49.358;11.140;2024-01-06T09:49:18;3.30;99.90
11961;DHT22;6040;49.358;11.140;2024-01-06T09:52:27;3.40;99.90
11961;DHT22;6040;49.358;11.140;2024-01-06T09:55:24;3.50;99.90
11961;DHT22;6040;49.358;11.140;2024-01-06T09:57:52;3.60;99.90
11961;DHT22;6040;49.358;11.140;2024-01-06T10:00:19;4.60;99.90
11961;DHT22;6040;49.358;11.140;2024-01-06T10:02:46;3.70;99.90
11961;DHT22;6040;49.358;11.140;2024-01-06T10:05:16;3.90;99.90
11961;DHT22;6040;49.358;11.140;2024-01-06T10:07:43;4.00;99.90
11961;DHT22;6040;49.358;11.140;2024-01-06T10:10:10;7.00;99.90
11961;DHT22;6040;49.358;11.140;2024-01-06T10:12:37;6.80;99.90
11961;DHT22;6040;49.358;11.140;2024-01-06T10:15:05;4.00;99.90
11961;DHT22;6040;49.358;11.140;2024-01-06T10:17:33;4.10;99.90
11961;DHT22;6040;49.358;11.140;2024-01-06T10:19:59;5.90;99.90
11961;DHT22;6040;49.358;11.140;2024-01-06T10:22:28;6.50;99.90
11961;DHT22;6040;49.358;11.140;2024-01-06T10:24:55;6.50;99.90
11961;DHT22;6040;49.358;11.140;2024-01-06T10:27:21;4.20;99.90
11961;DHT22;6040;49.358;11.140;2024-01-06T10:29:48;4.20;99.90
11961;DHT22;6040;49.358;11.140;2024-01-06T10:32:16;4.40;99.90
11961;DHT22;6040;49.358;11.140;2024-01-06T10:34:44;4.70;99.90
11961;DHT22;6040;49.358;11.140;2024-01-06T10:37:11;4.90;99.90
11961;DHT22;6040;49.358;11.140;2024-01-06T10:39:39;4.50;99.90
11961;DHT22;6040;49.358;11.140;2024-01-06T10:42:06;4.50;99.90
11961;DHT22;6040;49.358;11.140;2024-01-06T10:44:34;6.70;99.90
11961;DHT22;6040;49.358;11.140;2024-01-06T10:47:02;4.80;99.90
11961;DHT22;6040;49.358;11.140;2024-01-06T10:49:30;4.50;99.90
11961;DHT22;6040;49.358;11.140;2024-01-06T10:51:58;4.60;99.90
11961;DHT22;6040;49.358;11.140;2024-01-06T10:54:27;4.50;99.90
11961;DHT22;6040;49.358;11.140;2024-01-06T10:56:56;4.60;99.90
11961;DHT22;6040;49.358;11.140;2024-01-06T10:59:23;4.60;99.90
11961;DHT22;6040;49.358;11.140;2024-01-06T11:01:53;4.60;99.90
11961;DHT22;6040;49.358;11.140;2024-01-06T11:04:22;4.70;99.90
11961;DHT22;6040;49.358;11.140;2024-01-06T11:06:50;5.10;99.90
11961;DHT22;6040;49.358;11.140;2024-01-06T11:09:21;4.20;99.90
11961;DHT22;6040;49.358;11.140;2024-01-06T11:11:49;4.70;99.90
11961;DHT22;6040;49.358;11.140;2024-01-06T11:14:19;4.80;99.90
11961;DHT22;6040;49.358;11.140;2024-01-06T11:16:46;6.80;99.90
11961;DHT22;6040;49.358;11.140;2024-01-06T11:19:44;4.70;99.90
11961;DHT22;6040;49.358;11.140;2024-01-06T11:22:24;4.80;99.90
11961;DHT22;6040;49.358;11.140;2024-01-06T11:24:52;4.80;99.90
11961;DHT22;6040;49.358;11.140;2024-01-06T11:27:21;4.90;99.90
11961;DHT22;6040;49.358;11.140;2024-01-06T11:29:51;3.70;99.90
11961;DHT22;6040;49.358;11.140;2024-01-06T11:32:20;4.90;99.90
11961;DHT22;6040;49.358;11.140;2024-01-06T11:34:51;4.90;99.90
11961;DHT22;6040;49.358;11.140;2024-01-06T11:37:23;5.00;99.90
11961;DHT22;6040;49.358;11.140;2024-01-06T11:39:50;5.00;99.90
11961;DHT22;6040;49.358;11.140;2024-01-06T11:42:33;5.90;99.90
11961;DHT22;6040;49.358;11.140;2024-01-06T11:45:06;5.10;99.90
11961;DHT22;6040;49.358;11.140;2024-01-06T11:47:33;5.20;99.90
11961;DHT22;6040;49.358;11.140;2024-01-06T11:50:01;5.20;99.90
11961;DHT22;6040;49.358;11.140;2024-01-06T11:52:30;6.80;99.90
11961;DHT22;6040;49.358;11.140;2024-01-06T11:54:57;5.30;99.90
11961;DHT22;6040;49.358;11.140;2024-01-06T11:57:25;6.10;99.90
11961;DHT22;6040;49.358;11.140;2024-01-06T11:59:53;5.40;99.90
11961;DHT22;6040;49.358;11.140;2024-01-06T12:02:21;5.50;99.90
11961;DHT22;6040;49.358;11.140;2024-01-06T12:04:49;5.50;99.90
11961;DHT22;6040;49.358;11.140;2024-01-06T12:07:17;7.20;99.90
11961;DHT22;6040;49.358;11.140;2024-01-06T12:09:45;7.80;99.90
11961;DHT22;6040;49.358;11.140;2024-01-06T12:12:15;5.60;99.90
11961;DHT22;6040;49.358;11.140;2024-01-06T12:14:42;5.70;99.90
11961;DHT22;6040;49.358;11.140;2024-01-06T12:17:09;5.80;99.90
11961;DHT22;6040;49.358;11.140;2024-01-06T12:19:38;5.80;99.90
11961;DHT22;6040;49.358;11.140;2024-01-06T12:22:05;5.90;99.90
11961;DHT22;6040;49.358;11.140;2024-01-06T12:24:32;5.90;99.90
11961;DHT22;6040;49.358;11.140;2024-01-06T12:26:59;6.80;99.90
11961;DHT22;6040;49.358;11.140;2024-01-06T12:29:26;5.90;99.90
11961;DHT22;6040;49.358;11.140;2024-01-06T12:31:55;7.30;99.90
11961;DHT22;6040;49.358;11.140;2024-01-06T12:34:22;6.00;99.90
11961;DHT22;6040;49.358;11.140;2024-01-06T12:36:52;6.00;99.90
11961;DHT22;6040;49.358;11.140;2024-01-06T12:39:20;6.10;99.90
11961;DHT22;6040;49.358;11.140;2024-01-06T12:41:50;6.10;99.90
11961;DHT22;6040;49.358;11.140;2024-01-06T12:44:17;6.10;99.90
11961;DHT22;6040;49.358;11.140;2024-01-06T12:46:43;7.50;99.90
11961;DHT22;6040;49.358;11.140;2024-01-06T12:49:10;6.30;99.90
11961;DHT22;6040;49.358;11.140;2024-01-06T12:51:37;6.30;99.90
11961;DHT22;6040;49.358;11.140;2024-01-06T12:54:05;8.40;99.90
11961;DHT22;6040;49.358;11.140;2024-01-06T12:56:32;6.10;99.90
11961;DHT22;6040;49.358;11.140;2024-01-06T12:58:59;6.00;99.90
11961;DHT22;6040;49.358;11.140;2024-01-06T13:01:26;5.90;99.90
11961;DHT22;6040;49.358;11.140;2024-01-06T13:03:53;7.70;99.90
11961;DHT22;6040;49.358;11.140;2024-01-06T13:06:20;5.80;99.90
11961;DHT22;6040;49.358;11.140;2024-01-06T13:08:47;5.70;99.90
11961;DHT22;6040;49.358;11.140;2024-01-06T13:11:16;6.70;99.90
11961;DHT22;6040;49.358;11.140;2024-01-06T13:13:43;7.10;99.90
11961;DHT22;6040;49.358;11.140;2024-01-06T13:16:10;5.60;99.90
11961;DHT22;6040;49.358;11.140;2024-01-06T13:18:37;5.50;99.90
11961;DHT22;6040;49.358;11.140;2024-01-06T13:21:04;6.60;99.90
11961;DHT22;6040;49.358;11.140;2024-01-06T13:23:31;5.50;99.90
11961;DHT22;6040;49.358;11.140;2024-01-06T13:25:58;5.50;99.90
11961;DHT22;6040;49.358;11.140;2024-01-06T13:28:26;5.50;99.90
11961;DHT22;6040;49.358;11.140;2024-01-06T13:30:53;6.70;99.90
11961;DHT22;6040;49.358;11.140;2024-01-06T13:33:20;5.40;99.90
11961;DHT22;6040;49.358;11.140;2024-01-06T13:35:48;5.40;99.90
11961;DHT22;6040;49.358;11.140;2024-01-06T13:38:14;7.90;99.90
11961;DHT22;6040;49.358;11.140;2024-01-06T13:40:41;5.30;99.90
11961;DHT22;6040;49.358;11.140;2024-01-06T13:43:08;5.30;99.90
11961;DHT22;6040;49.358;11.140;2024-01-06T13:45:42;5.30;99.90
11961;DHT22;6040;49.358;11.140;2024-01-06T13:48:10;5.30;99.90
11961;DHT22;6040;49.358;11.140;2024-01-06T13:50:37;5.20;99.90
11961;DHT22;6040;49.358;11.140;2024-01-06T13:53:04;5.20;99.90
11961;DHT22;6040;49.358;11.140;2024-01-06T13:55:31;5.20;99.90
11961;DHT22;6040;49.358;11.140;2024-01-06T13:57:58;5.20;99.90
11961;DHT22;6040;49.358;11.140;2024-01-06T14:00:25;8.10;99.90
11961;DHT22;6040;49.358;11.140;2024-01-06T14:02:54;5.20;99.90
11961;DHT22;6040;49.358;11.140;2024-01-06T14:05:22;5.60;99.90
11961;DHT22;6040;49.358;11.140;2024-01-06T14:07:49;5.30;99.90
11961;DHT22;6040;49.358;11.140;2024-01-06T14:10:16;8.20;99.90
11961;DHT22;6040;49.358;11.140;2024-01-06T14:12:43;5.20;99.90
11961;DHT22;6040;49.358;11.140;2024-01-06T14:15:10;5.20;99.90
11961;DHT22;6040;49.358;11.140;2024-01-06T14:17:37;5.10;99.90
11961;DHT22;6040;49.358;11.140;2024-01-06T14:20:07;5.10;99.90
11961;DHT22;6040;49.358;11.140;2024-01-06T14:22:38;5.10;99.90
11961;DHT22;6040;49.358;11.140;2024-01-06T14:25:05;5.10;99.90
11961;DHT22;6040;49.358;11.140;2024-01-06T14:27:32;5.10;99.90
11961;DHT22;6040;49.358;11.140;2024-01-06T14:30:00;5.00;99.90
11961;DHT22;6040;49.358;11.140;2024-01-06T14:32:26;5.10;99.90
11961;DHT22;6040;49.358;11.140;2024-01-06T14:34:54;6.30;99.90
11961;DHT22;6040;49.358;11.140;2024-01-06T14:37:22;5.20;99.90
11961;DHT22;6040;49.358;11.140;2024-01-06T14:39:49;5.10;99.90
11961;DHT22;6040;49.358;11.140;2024-01-06T14:42:16;5.00;99.90
11961;DHT22;6040;49.358;11.140;2024-01-06T14:44:44;5.00;99.90
11961;DHT22;6040;49.358;11.140;2024-01-06T14:47:11;7.30;99.90
11961;DHT22;6040;49.358;11.140;2024-01-06T14:49:38;5.00;99.90
11961;DHT22;6040;49.358;11.140;2024-01-06T14:52:05;5.00;99.90
11961;DHT22;6040;49.358;11.140;2024-01-06T14:54:34;5.00;99.90
11961;DHT22;6040;49.358;11.140;2024-01-06T14:57:01;4.90;99.90
11961;DHT22;6040;49.358;11.140;2024-01-06T14:59:28;4.90;99.90
11961;DHT22;6040;49.358;11.140;2024-01-06T15:01:55;5.30;99.90
11961;DHT22;6040;49.358;11.140;2024-01-06T15:04:21;7.80;99.90
11961;DHT22;6040;49.358;11.140;2024-01-06T15:06:48;4.90;99.90
11961;DHT22;6040;49.358;11.140;2024-01-06T15:09:16;4.80;99.90
11961;DHT22;6040;49.358;11.140;2024-01-06T15:11:45;4.90;99.90
11961;DHT22;6040;49.358;11.140;2024-01-06T15:14:11;4.90;99.90
11961;DHT22;6040;49.358;11.140;2024-01-06T15:16:39;4.90;99.90
11961;DHT22;6040;49.358;11.140;2024-01-06T15:19:06;7.60;99.90
11961;DHT22;6040;49.358;11.140;2024-01-06T15:21:33;6.00;99.90
11961;DHT22;6040;49.358;11.140;2024-01-06T15:24:02;4.80;99.90
11961;DHT22;6040;49.358;11.140;2024-01-06T15:26:29;4.70;99.90
11961;DHT22;6040;49.358;11.140;2024-01-06T15:28:57;4.90;99.90
11961;DHT22;6040;49.358;11.140;2024-01-06T15:31:26;4.70;99.90
11961;DHT22;6040;49.358;11.140;2024-01-06T15:33:53;4.80;99.90
11961;DHT22;6040;49.358;11.140;2024-01-06T15:36:20;4.90;99.90
11961;DHT22;6040;49.358;11.140;2024-01-06T15:38:47;5.10;99.90
11961;DHT22;6040;49.358;11.140;2024-01-06T15:41:15;5.90;99.90
11961;DHT22;6040;49.358;11.140;2024-01-06T15:43:41;4.70;99.90
11961;DHT22;6040;49.358;11.140;2024-01-06T15:46:10;4.70;99.90
11961;DHT22;6040;49.358;11.140;2024-01-06T15:48:37;4.60;99.90